LEST

Santiago de Compostela Airport

Santiago de Compostela, Spain
TAF LEST 170500Z 1706/1806 15007KT 9999 SCT040 TX18/1715Z TN09/1806Z PROB40 TEMPO 1712/1717 14015G25KT SCT030TCU
Issued Valid From Valid To
Nov-17 @ 05:00 UTC
(4 hours ago)
Nov-17 @ 06:00 UTC
(3 hours ago)
Nov-18 @ 06:00 UTC
(in 21 hours)
Nov-17 @ 06:00 to Nov-18 @ 06:00
TAF LEST 170500Z 1706/1806 15007KT 9999 SCT040 TX18/1715Z TN09/1806Z
Wind Visibility Clouds
150° at 7 knots 10,000+ meters
  • Scattered at 4,000' AGL
Temporary  (Probability 40%) Nov-17 @ 12:00 to Nov-17 @ 17:00
PROB40 TEMPO 1712/1717 14015G25KT SCT030TCU
Wind Clouds
140° at 15 knots
 Gusting to 25 knots
  • Scattered at 3,000' AGL
TAF LEST 170500Z 1706/1806 15007KT 9999 SCT040 TX18/1715Z TN09/1806Z PROB40 TEMPO 1712/1717 14015G25KT SCT030TCU
Issued Nov-17 @ 05:00 UTC
(4 hours ago)
Valid From Nov-17 @ 06:00 UTC
(3 hours ago)
Valid To Nov-18 @ 06:00 UTC
(in 21 hours)
Nov-17 @ 06:00 - Nov-18 @ 06:00
Wind Visibility
150° at 7 knots 10,000+ meters
Clouds
  • Scattered at 4,000' AGL
Probability 40% Temporary Nov-17 @ 12:00 - Nov-17 @ 17:00
Wind
140° at 15 knots
 Gusting to 25 knots
Clouds
  • Scattered at 3,000' AGL